createdAt,value
2023-11-04T00:00:35.465Z,16.22
2023-11-04T00:01:32.677Z,16.13
2023-11-04T00:02:32.674Z,16.13
2023-11-04T00:03:32.789Z,16.32
2023-11-04T00:04:32.737Z,16.52
2023-11-04T00:05:32.723Z,16.42
2023-11-04T00:06:32.675Z,16.42
2023-11-04T00:07:32.646Z,16.42
2023-11-04T00:08:32.637Z,16.32
2023-11-04T00:09:42.358Z,16.42
2023-11-04T00:10:32.683Z,16.42
2023-11-04T00:11:32.656Z,16.42
2023-11-04T00:12:32.670Z,16.32
2023-11-04T00:13:32.655Z,16.32
2023-11-04T00:14:32.651Z,16.32
2023-11-04T00:15:32.671Z,16.32
2023-11-04T00:16:32.665Z,16.32
2023-11-04T00:17:32.729Z,16.32
2023-11-04T00:18:32.896Z,16.22
2023-11-04T00:19:32.717Z,16.22
2023-11-04T00:20:39.578Z,16.22
2023-11-04T00:21:32.682Z,16.13
2023-11-04T00:22:32.671Z,16.13
2023-11-04T00:23:32.678Z,16.13
2023-11-04T00:24:32.756Z,16.13
2023-11-04T00:25:32.682Z,16.42
2023-11-04T00:26:32.677Z,16.32
2023-11-04T00:27:32.770Z,16.32
2023-11-04T00:28:32.930Z,16.24
2023-11-04T00:29:32.689Z,16.24
2023-11-04T00:30:32.705Z,16.22
2023-11-04T00:31:32.692Z,16.32
2023-11-04T00:32:32.734Z,16.22
2023-11-04T00:33:32.846Z,16.22
2023-11-04T00:34:32.746Z,16.14
2023-11-04T00:35:32.731Z,16.13
2023-11-04T00:36:32.724Z,16.22
2023-11-04T00:37:32.706Z,16.22
2023-11-04T00:38:32.703Z,16.32
2023-11-04T00:39:32.755Z,16.32
2023-11-04T00:40:32.709Z,16.32
2023-11-04T00:41:32.721Z,16.32
2023-11-04T00:42:33.274Z,16.32
2023-11-04T00:43:32.721Z,16.42
2023-11-04T00:44:32.726Z,16.22
2023-11-04T00:45:32.835Z,16.32
2023-11-04T00:46:32.737Z,16.32
2023-11-04T00:47:32.749Z,16.22
2023-11-04T00:48:32.835Z,16.22
2023-11-04T00:49:32.855Z,16.32
2023-11-04T00:50:32.801Z,16.22
2023-11-04T00:51:32.826Z,16.22
2023-11-04T00:52:32.789Z,16.52
2023-11-04T00:53:32.783Z,16.43
2023-11-04T00:54:32.868Z,16.22
2023-11-04T00:55:32.864Z,16.42
2023-11-04T00:56:32.806Z,16.32
2023-11-04T00:57:32.806Z,16.32
2023-11-04T00:58:32.819Z,16.13
2023-11-04T00:59:32.842Z,16.22
2023-11-04T01:00:32.893Z,16.22
2023-11-04T01:01:32.840Z,16.32
2023-11-04T01:02:32.849Z,16.22
2023-11-04T01:03:32.951Z,16.22
2023-11-04T01:04:32.849Z,16.42
2023-11-04T01:05:32.966Z,16.22
2023-11-04T01:06:32.794Z,16.24
2023-11-04T01:07:32.775Z,16.13
2023-11-04T01:08:32.789Z,16.32
2023-11-04T01:09:33.119Z,16.22
2023-11-04T01:10:32.780Z,16.13
2023-11-04T01:11:32.777Z,16.22
2023-11-04T01:12:32.812Z,16.32
2023-11-04T01:13:32.783Z,16.33
2023-11-04T01:14:32.796Z,16.32
2023-11-04T01:15:32.799Z,16.42
2023-11-04T01:16:32.796Z,16.22
2023-11-04T01:17:32.804Z,16.22
2023-11-04T01:18:32.816Z,16.22
2023-11-04T01:19:32.797Z,16.22
2023-11-04T01:20:32.806Z,16.22
2023-11-04T01:21:32.879Z,16.32
2023-11-04T01:22:32.807Z,16.14
2023-11-04T01:23:32.806Z,16.33
2023-11-04T01:24:32.842Z,16.13
2023-11-04T01:25:32.806Z,16.42
2023-11-04T01:26:32.816Z,16.13
2023-11-04T01:27:32.830Z,16.22
2023-11-04T01:28:32.830Z,16.33
2023-11-04T01:29:32.819Z,16.32
2023-11-04T01:30:32.849Z,16.32
2023-11-04T01:31:32.826Z,16.13
2023-11-04T01:32:32.880Z,16.32
2023-11-04T01:33:32.953Z,16.22
2023-11-04T01:34:33.035Z,16.24
2023-11-04T01:35:32.831Z,16.32
2023-11-04T01:36:32.876Z,16.32
2023-11-04T01:37:32.856Z,16.32
2023-11-04T01:38:32.848Z,16.13
2023-11-04T01:39:32.894Z,16.42
2023-11-04T01:40:32.847Z,16.32
2023-11-04T01:41:32.843Z,16.42
2023-11-04T01:42:32.885Z,16.22
2023-11-04T01:43:32.847Z,16.42
2023-11-04T01:44:32.858Z,16.13
2023-11-04T01:45:32.868Z,16.03
2023-11-04T01:46:32.861Z,16.13
2023-11-04T01:47:32.865Z,16.32
2023-11-04T01:48:32.916Z,16.42
2023-11-04T01:49:32.914Z,16.13
2023-11-04T01:50:32.866Z,16.32
2023-11-04T01:51:32.957Z,16.13
2023-11-04T01:52:32.873Z,16.13
2023-11-04T01:53:32.899Z,16.13
2023-11-04T01:54:32.920Z,16.42
2023-11-04T01:55:32.876Z,16.22
2023-11-04T01:56:32.881Z,16.13
2023-11-04T01:57:32.892Z,16.13
2023-11-04T01:58:32.886Z,15.84
2023-11-04T01:59:32.894Z,15.94
2023-11-04T02:00:32.964Z,15.94
2023-11-04T02:01:32.896Z,15.94
2023-11-04T02:02:32.934Z,15.94
2023-11-04T02:03:32.971Z,15.84
2023-11-04T02:04:33.021Z,15.94
2023-11-04T02:05:32.895Z,15.94
2023-11-04T02:06:32.950Z,15.94
2023-11-04T02:07:32.898Z,16.22
2023-11-04T02:08:32.909Z,16.32
2023-11-04T02:09:32.979Z,16.24
2023-11-04T02:10:32.917Z,16.22
2023-11-04T02:11:32.911Z,16.32
2023-11-04T02:12:32.960Z,16.32
2023-11-04T02:13:32.920Z,16.04
2023-11-04T02:14:32.941Z,15.94
2023-11-04T02:15:32.992Z,16.13
2023-11-04T02:16:32.957Z,15.94
2023-11-04T02:17:32.964Z,15.94
2023-11-04T02:18:32.987Z,16.13
2023-11-04T02:19:32.998Z,16.22
2023-11-04T02:20:32.934Z,15.84
2023-11-04T02:21:32.968Z,15.94
2023-11-04T02:22:32.952Z,15.94
2023-11-04T02:23:32.948Z,15.94
2023-11-04T02:24:32.982Z,16.03
2023-11-04T02:25:32.967Z,16.22
2023-11-04T02:26:32.949Z,16.22
2023-11-04T02:27:33.010Z,16.22
2023-11-04T02:28:32.952Z,16.13
2023-11-04T02:29:32.954Z,16.22
2023-11-04T02:30:33.002Z,16.24
2023-11-04T02:31:32.953Z,16.32
2023-11-04T02:32:32.990Z,16.13
2023-11-04T02:33:33.093Z,16.22
2023-11-04T02:34:33.095Z,16.22
2023-11-04T02:35:32.962Z,16.22
2023-11-04T02:36:32.992Z,16.13
2023-11-04T02:37:32.967Z,16.32
2023-11-04T02:38:32.978Z,16.22
2023-11-04T02:39:32.993Z,16.22
2023-11-04T02:40:32.982Z,16.22
2023-11-04T02:41:33.003Z,16.13
2023-11-04T02:42:32.995Z,16.22
2023-11-04T02:43:32.977Z,16.32
2023-11-04T02:44:32.987Z,15.84
2023-11-04T02:45:33.025Z,15.94
2023-11-04T02:46:32.996Z,15.94
2023-11-04T02:47:33.048Z,15.74
2023-11-04T02:48:33.113Z,15.84
2023-11-04T02:49:33.000Z,15.74
2023-11-04T02:50:33.002Z,15.94
2023-11-04T02:51:33.027Z,15.94
2023-11-04T02:52:33.007Z,15.84
2023-11-04T02:53:33.005Z,15.84
2023-11-04T02:54:33.026Z,16.03
2023-11-04T02:55:33.004Z,15.94
2023-11-04T02:56:33.015Z,15.84
2023-11-04T02:57:33.043Z,16.03
2023-11-04T02:58:33.025Z,15.94
2023-11-04T02:59:33.019Z,15.94
2023-11-04T03:00:33.162Z,15.84
2023-11-04T03:01:33.022Z,15.84
2023-11-04T03:02:33.071Z,15.94
2023-11-04T03:03:33.089Z,16.03
2023-11-04T03:04:33.108Z,15.94
2023-11-04T03:05:37.616Z,16.03
2023-11-04T03:06:33.056Z,15.94
2023-11-04T03:07:33.031Z,15.94
2023-11-04T03:08:33.054Z,15.84
2023-11-04T03:09:33.069Z,16.03
2023-11-04T03:10:33.077Z,15.94
2023-11-04T03:11:33.045Z,15.94
2023-11-04T03:12:33.084Z,16.03
2023-11-04T03:13:33.070Z,16.03
2023-11-04T03:14:33.059Z,15.94
2023-11-04T03:15:33.086Z,16.03
2023-11-04T03:16:33.058Z,16.03
2023-11-04T03:17:33.086Z,15.84
2023-11-04T03:18:33.117Z,15.84
2023-11-04T03:19:33.110Z,15.94
2023-11-04T03:20:33.069Z,15.74
2023-11-04T03:21:33.078Z,15.84
2023-11-04T03:22:33.070Z,15.74
2023-11-04T03:23:33.064Z,15.94
2023-11-04T03:24:33.089Z,15.94
2023-11-04T03:25:33.069Z,15.94
2023-11-04T03:26:33.079Z,15.94
2023-11-04T03:27:33.137Z,15.84
2023-11-04T03:28:33.092Z,15.94
2023-11-04T03:29:33.348Z,16.03
2023-11-04T03:30:33.121Z,16.03
2023-11-04T03:31:33.080Z,15.94
2023-11-04T03:32:33.104Z,16.03
2023-11-04T03:33:33.154Z,15.94
2023-11-04T03:34:33.189Z,16.03
2023-11-04T03:35:33.096Z,16.03
2023-11-04T03:36:33.196Z,16.03
2023-11-04T03:37:33.100Z,15.94
2023-11-04T03:38:33.101Z,15.84
2023-11-04T03:39:33.108Z,15.94
2023-11-04T03:40:33.107Z,15.94
2023-11-04T03:41:33.116Z,15.74
2023-11-04T03:42:33.123Z,15.94
2023-11-04T03:43:33.106Z,15.74
2023-11-04T03:44:33.115Z,15.74
2023-11-04T03:45:33.162Z,16.03
2023-11-04T03:46:33.119Z,16.03
2023-11-04T03:47:33.220Z,15.84
2023-11-04T03:48:33.325Z,15.84
2023-11-04T03:49:33.153Z,15.94
2023-11-04T03:50:33.135Z,15.74
2023-11-04T03:51:33.166Z,15.84
2023-11-04T03:52:33.136Z,15.94
2023-11-04T03:53:33.125Z,15.74
2023-11-04T03:54:33.142Z,15.74
2023-11-04T03:55:33.130Z,15.92
2023-11-04T03:56:33.141Z,16.02
2023-11-04T03:57:33.159Z,15.84
2023-11-04T03:58:33.145Z,15.74
2023-11-04T03:59:33.143Z,15.73
2023-11-04T04:00:33.171Z,15.84
2023-11-04T04:01:33.168Z,15.94
2023-11-04T04:02:33.188Z,15.83
2023-11-04T04:03:33.271Z,15.94
2023-11-04T04:04:33.280Z,16.03
2023-11-04T04:05:33.155Z,15.64
2023-11-04T04:06:33.241Z,15.84
2023-11-04T04:07:33.156Z,15.73
2023-11-04T04:08:33.165Z,15.64
2023-11-04T04:09:33.215Z,15.73
2023-11-04T04:10:33.192Z,15.64
2023-11-04T04:11:33.162Z,15.64
2023-11-04T04:12:33.264Z,15.55
2023-11-04T04:13:33.173Z,15.64
2023-11-04T04:14:33.178Z,15.74
2023-11-04T04:15:33.215Z,15.64
2023-11-04T04:16:33.181Z,15.73
2023-11-04T04:17:33.249Z,15.64
2023-11-04T04:18:33.270Z,15.64
2023-11-04T04:19:33.179Z,15.64
2023-11-04T04:20:33.192Z,15.64
2023-11-04T04:21:33.201Z,15.64
2023-11-04T04:22:33.202Z,15.54
2023-11-04T04:23:33.187Z,15.54
2023-11-04T04:24:33.219Z,15.64
2023-11-04T04:25:33.194Z,15.64
2023-11-04T04:26:33.207Z,15.64
2023-11-04T04:27:33.238Z,15.54
2023-11-04T04:28:33.219Z,15.73
2023-11-04T04:29:33.199Z,15.44
2023-11-04T04:30:33.245Z,15.44
2023-11-04T04:31:33.209Z,15.73
2023-11-04T04:32:33.301Z,15.55
2023-11-04T04:33:33.312Z,15.54
2023-11-04T04:34:33.219Z,15.44
2023-11-04T04:35:33.216Z,15.54
2023-11-04T04:36:33.222Z,15.54
2023-11-04T04:37:33.218Z,15.45
2023-11-04T04:38:33.234Z,15.55
2023-11-04T04:39:33.240Z,15.34
2023-11-04T04:40:33.242Z,15.06
2023-11-04T04:41:33.226Z,15.15
2023-11-04T04:42:33.259Z,14.96
2023-11-04T04:43:33.229Z,15.06
2023-11-04T04:44:33.245Z,15.25
2023-11-04T04:45:33.260Z,15.25
2023-11-04T04:46:33.254Z,15.44
2023-11-04T04:47:33.263Z,15.25
2023-11-04T04:48:33.274Z,15.05
2023-11-04T04:49:33.313Z,15.44
2023-11-04T04:50:33.253Z,15.15
2023-11-04T04:51:33.293Z,15.16
2023-11-04T04:52:33.261Z,15.34
2023-11-04T04:53:33.251Z,15.25
2023-11-04T04:54:33.281Z,15.34
2023-11-04T04:55:33.264Z,15.34
2023-11-04T04:56:33.264Z,15.25
2023-11-04T04:57:33.273Z,15.44
2023-11-04T04:58:33.267Z,15.25
2023-11-04T04:59:33.267Z,15.35
2023-11-04T05:00:33.292Z,15.25
2023-11-04T05:01:33.287Z,15.25
2023-11-04T05:02:33.328Z,15.25
2023-11-04T05:03:33.430Z,15.15
2023-11-04T05:04:33.279Z,15.35
2023-11-04T05:05:33.445Z,15.35
2023-11-04T05:06:33.302Z,15.25
2023-11-04T05:07:33.312Z,15.35
2023-11-04T05:08:33.295Z,15.25
2023-11-04T05:09:33.302Z,15.35
2023-11-04T05:10:33.291Z,15.35
2023-11-04T05:11:33.296Z,15.25
2023-11-04T05:12:33.314Z,15.16
2023-11-04T05:13:33.296Z,15.25
2023-11-04T05:14:33.296Z,15.35
2023-11-04T05:15:33.313Z,15.25
2023-11-04T05:16:33.296Z,15.35
2023-11-04T05:17:33.322Z,15.34
2023-11-04T05:18:33.382Z,15.16
2023-11-04T05:19:33.336Z,15.44
2023-11-04T05:20:33.312Z,15.25
2023-11-04T05:21:33.368Z,15.15
2023-11-04T05:22:33.307Z,15.34
2023-11-04T05:23:33.330Z,15.35
2023-11-04T05:24:33.350Z,15.34
2023-11-04T05:25:35.453Z,15.25
2023-11-04T05:26:33.315Z,15.25
2023-11-04T05:27:33.332Z,15.25
2023-11-04T05:28:33.329Z,15.25
2023-11-04T05:29:33.478Z,15.25
2023-11-04T05:30:33.384Z,15.35
2023-11-04T05:31:33.332Z,15.25
2023-11-04T05:32:33.388Z,15.35
2023-11-04T05:33:33.397Z,15.25
2023-11-04T05:34:33.332Z,15.25
2023-11-04T05:35:35.111Z,15.25
2023-11-04T05:36:33.411Z,15.35
2023-11-04T05:37:33.367Z,15.45
2023-11-04T05:38:33.346Z,14.95
2023-11-04T05:39:33.372Z,14.96
2023-11-04T05:40:33.342Z,14.95
2023-11-04T05:41:33.353Z,15.45
2023-11-04T05:42:33.358Z,15.35
2023-11-04T05:43:33.358Z,15.25
2023-11-04T05:44:33.352Z,15.25
2023-11-04T05:45:33.366Z,15.34
2023-11-04T05:46:33.356Z,15.45
2023-11-04T05:47:33.422Z,15.44
2023-11-04T05:48:33.422Z,15.45
2023-11-04T05:49:33.412Z,15.25
2023-11-04T05:50:33.373Z,15.45
2023-11-04T05:51:33.386Z,15.25
2023-11-04T05:52:33.369Z,15.25
2023-11-04T05:53:33.397Z,15.25
2023-11-04T05:54:33.489Z,14.95
2023-11-04T05:55:33.380Z,15.34
2023-11-04T05:56:33.377Z,15.44
2023-11-04T05:57:33.423Z,15.35
2023-11-04T05:58:33.382Z,14.96
2023-11-04T05:59:33.390Z,14.87
2023-11-04T06:00:33.391Z,15.06
2023-11-04T06:01:33.402Z,14.95
2023-11-04T06:02:33.410Z,15.06
2023-11-04T06:03:33.621Z,14.95
2023-11-04T06:04:33.554Z,15.25
2023-11-04T06:05:33.413Z,14.96
2023-11-04T06:06:33.442Z,15.06
2023-11-04T06:07:33.441Z,14.96
2023-11-04T06:08:33.401Z,14.96
2023-11-04T06:09:33.572Z,14.96
2023-11-04T06:10:33.405Z,15.06
2023-11-04T06:11:33.416Z,14.96
2023-11-04T06:12:33.414Z,14.96
2023-11-04T06:13:33.420Z,14.96
2023-11-04T06:14:33.416Z,15.06
2023-11-04T06:15:33.449Z,14.96
2023-11-04T06:16:33.437Z,14.95
2023-11-04T06:17:33.434Z,14.96
2023-11-04T06:18:33.447Z,14.96
2023-11-04T06:19:33.494Z,14.96
2023-11-04T06:20:33.424Z,14.87
2023-11-04T06:21:33.470Z,14.96
2023-11-04T06:22:33.440Z,14.96
2023-11-04T06:23:33.443Z,14.96
2023-11-04T06:24:33.513Z,14.96
2023-11-04T06:25:33.494Z,14.87
2023-11-04T06:26:33.438Z,14.96
2023-11-04T06:27:33.491Z,14.96
2023-11-04T06:28:33.441Z,15.34
2023-11-04T06:29:33.478Z,14.96
2023-11-04T06:30:33.465Z,14.87
2023-11-04T06:31:33.462Z,14.96
2023-11-04T06:32:33.458Z,14.87
2023-11-04T06:33:33.523Z,14.96
2023-11-04T06:34:33.503Z,14.96
2023-11-04T06:35:33.464Z,14.87
2023-11-04T06:36:33.518Z,14.87
2023-11-04T06:37:33.471Z,14.87
2023-11-04T06:38:33.470Z,15.06
2023-11-04T06:39:33.542Z,14.96
2023-11-04T06:40:33.466Z,15.06
2023-11-04T06:41:33.502Z,14.96
2023-11-04T06:42:33.490Z,14.96
2023-11-04T06:43:33.481Z,14.96
2023-11-04T06:44:33.476Z,15.06
2023-11-04T06:45:33.515Z,14.96
2023-11-04T06:46:33.488Z,15.06
2023-11-04T06:47:33.585Z,14.96
2023-11-04T06:48:33.550Z,14.87
2023-11-04T06:49:33.510Z,14.96
2023-11-04T06:50:33.489Z,14.87
2023-11-04T06:51:33.525Z,14.96
2023-11-04T06:52:33.516Z,14.96
2023-11-04T06:53:33.507Z,15.06
2023-11-04T06:54:33.500Z,15.35
2023-11-04T06:55:33.504Z,14.87
2023-11-04T06:56:33.502Z,14.96
2023-11-04T06:57:33.548Z,14.96
2023-11-04T06:58:33.507Z,14.96
2023-11-04T06:59:33.527Z,14.87
2023-11-04T07:00:33.522Z,14.96
2023-11-04T07:01:33.518Z,15.35
2023-11-04T07:02:33.633Z,14.96
2023-11-04T07:03:33.671Z,14.87
2023-11-04T07:04:33.558Z,14.96
2023-11-04T07:05:33.570Z,14.96
2023-11-04T07:06:33.556Z,14.96
2023-11-04T07:07:33.529Z,14.96
2023-11-04T07:08:33.524Z,14.96
2023-11-04T07:09:33.562Z,14.96
2023-11-04T07:10:33.531Z,15.06
2023-11-04T07:11:33.544Z,15.06
2023-11-04T07:12:33.562Z,14.96
2023-11-04T07:13:33.586Z,15.35
2023-11-04T07:14:33.544Z,15.25
2023-11-04T07:15:33.573Z,15.35
2023-11-04T07:16:33.543Z,15.25
2023-11-04T07:17:33.566Z,15.16
2023-11-04T07:18:33.626Z,15.35
2023-11-04T07:19:33.589Z,15.16
2023-11-04T07:20:33.549Z,15.35
2023-11-04T07:21:33.589Z,15.35
2023-11-04T07:22:33.557Z,15.25
2023-11-04T07:23:33.563Z,15.25
2023-11-04T07:24:33.637Z,15.25
2023-11-04T07:25:33.570Z,15.25
2023-11-04T07:26:33.570Z,15.35
2023-11-04T07:27:33.626Z,15.25
2023-11-04T07:28:33.566Z,15.35
2023-11-04T07:29:33.604Z,15.16
2023-11-04T07:30:33.618Z,15.25
2023-11-04T07:31:33.579Z,15.35
2023-11-04T07:32:33.593Z,15.35
2023-11-04T07:33:33.696Z,15.25
2023-11-04T07:34:33.626Z,15.16
2023-11-04T07:35:33.612Z,15.25
2023-11-04T07:36:33.600Z,15.25
2023-11-04T07:37:33.602Z,15.25
2023-11-04T07:38:33.599Z,15.35
2023-11-04T07:39:33.622Z,15.45
2023-11-04T07:40:33.592Z,15.35
2023-11-04T07:41:33.617Z,15.45
2023-11-04T07:42:33.631Z,15.45
2023-11-04T07:43:33.624Z,15.35
2023-11-04T07:44:33.600Z,15.35
2023-11-04T07:45:33.693Z,15.35
2023-11-04T07:46:33.604Z,15.45
2023-11-04T07:47:33.653Z,15.45
2023-11-04T07:48:33.762Z,15.35
2023-11-04T07:49:33.618Z,15.45
2023-11-04T07:50:33.612Z,15.35
2023-11-04T07:51:33.646Z,15.16
2023-11-04T07:52:40.097Z,15.45
2023-11-04T07:53:33.622Z,15.45
2023-11-04T07:54:33.685Z,15.45
2023-11-04T07:55:33.663Z,15.45
2023-11-04T07:56:33.644Z,15.45
2023-11-04T07:57:33.693Z,15.25
2023-11-04T07:58:33.628Z,15.06
2023-11-04T07:59:33.661Z,15.45
2023-11-04T08:00:33.650Z,15.45
2023-11-04T08:01:33.678Z,15.16
2023-11-04T08:02:33.642Z,15.25
2023-11-04T08:03:33.694Z,15.06
2023-11-04T08:04:33.798Z,15.06
2023-11-04T08:05:33.690Z,15.06
2023-11-04T08:06:33.659Z,15.06
2023-11-04T08:07:33.658Z,15.16
2023-11-04T08:08:33.648Z,15.16
2023-11-04T08:09:33.667Z,15.16
2023-11-04T08:10:33.663Z,15.06
2023-11-04T08:11:33.672Z,15.16
2023-11-04T08:12:33.669Z,15.16
2023-11-04T08:13:33.688Z,15.55
2023-11-04T08:14:33.669Z,15.16
2023-11-04T08:15:33.701Z,15.16
2023-11-04T08:16:33.668Z,15.16
2023-11-04T08:17:33.769Z,15.06
2023-11-04T08:18:33.726Z,15.16
2023-11-04T08:19:33.765Z,15.45
2023-11-04T08:20:33.673Z,15.16
2023-11-04T08:21:33.781Z,15.45
2023-11-04T08:22:33.731Z,15.35
2023-11-04T08:23:33.696Z,15.45
2023-11-04T08:24:33.703Z,15.64
2023-11-04T08:25:33.706Z,15.55
2023-11-04T08:26:33.696Z,15.64
2023-11-04T08:27:33.720Z,15.16
2023-11-04T08:28:33.695Z,15.64
2023-11-04T08:29:33.701Z,15.64
2023-11-04T08:30:33.723Z,15.25
2023-11-04T08:31:33.706Z,15.55
2023-11-04T08:32:33.763Z,15.55
2023-11-04T08:33:33.814Z,15.35
2023-11-04T08:34:33.751Z,15.45
2023-11-04T08:35:33.717Z,15.84
2023-11-04T08:36:33.771Z,15.25
2023-11-04T08:37:33.718Z,15.55
2023-11-04T08:38:33.713Z,15.55
2023-11-04T08:39:33.758Z,15.64
2023-11-04T08:40:33.721Z,15.55
2023-11-04T08:41:33.731Z,15.55
2023-11-04T08:42:33.745Z,15.55
2023-11-04T08:43:33.737Z,15.45
2023-11-04T08:44:33.730Z,15.45
2023-11-04T08:45:33.765Z,15.45
2023-11-04T08:46:33.731Z,15.45
2023-11-04T08:47:33.795Z,15.64
2023-11-04T08:48:33.860Z,15.55
2023-11-04T08:49:33.831Z,15.55
2023-11-04T08:50:33.741Z,15.55
2023-11-04T08:51:33.767Z,15.55
2023-11-04T08:52:33.744Z,15.55
2023-11-04T08:53:33.753Z,15.55
2023-11-04T08:54:33.782Z,15.45
2023-11-04T08:55:33.761Z,15.45
2023-11-04T08:56:33.752Z,15.45
2023-11-04T08:57:33.890Z,15.55
2023-11-04T08:58:33.758Z,15.55
2023-11-04T08:59:33.765Z,15.64
2023-11-04T09:00:33.805Z,15.64
2023-11-04T09:01:33.782Z,15.55
2023-11-04T09:02:33.798Z,15.55
2023-11-04T09:03:36.164Z,15.64
2023-11-04T09:04:34.051Z,15.64
2023-11-04T09:05:34.840Z,15.64
2023-11-04T09:06:33.961Z,15.64
2023-11-04T09:07:33.870Z,15.74
2023-11-04T09:08:33.779Z,15.64
2023-11-04T09:09:33.841Z,15.55
2023-11-04T09:10:33.783Z,15.64
2023-11-04T09:11:33.798Z,15.45
2023-11-04T09:12:33.820Z,15.84
2023-11-04T09:13:33.797Z,15.84
2023-11-04T09:14:33.789Z,15.64
2023-11-04T09:15:33.830Z,15.55
2023-11-04T09:16:33.794Z,15.45
2023-11-04T09:17:33.900Z,15.45
2023-11-04T09:18:33.942Z,15.84
2023-11-04T09:19:33.829Z,15.74
2023-11-04T09:20:33.807Z,15.74
2023-11-04T09:21:33.842Z,15.74
2023-11-04T09:22:33.842Z,15.74
2023-11-04T09:23:33.816Z,15.64
2023-11-04T09:24:33.882Z,15.55
2023-11-04T09:25:33.823Z,15.74
2023-11-04T09:26:33.830Z,15.74
2023-11-04T09:27:33.916Z,15.74
2023-11-04T09:28:33.829Z,15.55
2023-11-04T09:29:33.973Z,15.74
2023-11-04T09:30:33.875Z,15.74
2023-11-04T09:31:34.046Z,15.64
2023-11-04T09:32:33.881Z,15.74
2023-11-04T09:33:33.990Z,15.64
2023-11-04T09:34:33.918Z,15.64
2023-11-04T09:35:33.836Z,15.55
2023-11-04T09:36:33.850Z,15.55
2023-11-04T09:37:33.861Z,15.55
2023-11-04T09:38:33.846Z,15.64
2023-11-04T09:39:33.902Z,15.45
2023-11-04T09:40:33.855Z,15.64
2023-11-04T09:41:37.225Z,15.64
2023-11-04T09:42:33.949Z,15.55
2023-11-04T09:43:33.850Z,15.45
2023-11-04T09:44:33.861Z,15.64
2023-11-04T09:45:33.927Z,15.74
2023-11-04T09:46:33.881Z,15.64
2023-11-04T09:47:33.936Z,15.64
2023-11-04T09:48:34.040Z,15.64
2023-11-04T09:49:33.897Z,15.64
2023-11-04T09:50:33.886Z,15.64
2023-11-04T09:51:33.902Z,15.45
2023-11-04T09:52:33.882Z,15.64
2023-11-04T09:53:33.900Z,15.55
2023-11-04T09:54:33.899Z,15.64
2023-11-04T09:55:33.876Z,15.64
2023-11-04T09:56:33.890Z,15.55
2023-11-04T09:57:33.941Z,15.64
2023-11-04T09:58:33.897Z,15.64
2023-11-04T09:59:33.892Z,15.74
2023-11-04T10:00:34.003Z,15.64
2023-11-04T10:01:33.892Z,15.84
2023-11-04T10:02:33.977Z,15.74
2023-11-04T10:03:34.078Z,15.74
2023-11-04T10:04:34.074Z,15.64
2023-11-04T10:05:33.997Z,15.74
2023-11-04T10:06:34.062Z,15.74
2023-11-04T10:07:33.900Z,15.74
2023-11-04T10:08:33.910Z,15.64
2023-11-04T10:09:33.964Z,15.74
2023-11-04T10:10:34.000Z,15.74
2023-11-04T10:11:33.907Z,15.74
2023-11-04T10:12:34.052Z,15.64
2023-11-04T10:13:33.920Z,15.74
2023-11-04T10:14:33.928Z,15.74
2023-11-04T10:15:34.001Z,15.74
2023-11-04T10:16:33.927Z,15.64
2023-11-04T10:17:33.966Z,15.74
2023-11-04T10:18:34.016Z,15.74
2023-11-04T10:19:34.007Z,15.74
2023-11-04T10:20:33.935Z,15.74
2023-11-04T10:21:34.006Z,15.64
2023-11-04T10:22:33.941Z,15.64
2023-11-04T10:23:33.957Z,15.55
2023-11-04T10:24:34.006Z,15.74
2023-11-04T10:25:33.962Z,15.64
2023-11-04T10:26:33.949Z,15.64
2023-11-04T10:27:33.974Z,15.74
2023-11-04T10:28:34.121Z,15.74
2023-11-04T10:29:34.201Z,15.74
2023-11-04T10:30:34.064Z,15.64
2023-11-04T10:31:33.959Z,15.74
2023-11-04T10:32:34.027Z,15.64
2023-11-04T10:33:34.124Z,15.55
2023-11-04T10:34:34.023Z,15.64
2023-11-04T10:35:33.963Z,15.55
2023-11-04T10:36:34.042Z,15.64
2023-11-04T10:37:33.971Z,15.64
2023-11-04T10:38:33.980Z,15.64
2023-11-04T10:39:33.993Z,15.64
2023-11-04T10:40:35.334Z,15.64
2023-11-04T10:41:33.999Z,15.74
2023-11-04T10:42:34.023Z,15.64
2023-11-04T10:43:33.980Z,15.45
2023-11-04T10:44:34.006Z,15.74
2023-11-04T10:45:34.048Z,15.64
2023-11-04T10:46:34.020Z,15.64
2023-11-04T10:47:34.044Z,15.64
2023-11-04T10:48:34.084Z,15.64
2023-11-04T10:49:34.069Z,15.74
2023-11-04T10:50:34.039Z,15.55
2023-11-04T10:51:34.068Z,15.74
2023-11-04T10:52:34.008Z,15.64
2023-11-04T10:53:34.003Z,15.64
2023-11-04T10:54:34.035Z,15.64
2023-11-04T10:55:34.005Z,15.74
2023-11-04T10:56:34.015Z,15.64
2023-11-04T10:57:34.060Z,15.64
2023-11-04T10:58:34.023Z,15.64
2023-11-04T10:59:34.015Z,15.64
2023-11-04T11:00:34.109Z,15.64
2023-11-04T11:01:34.018Z,15.64
2023-11-04T11:02:34.117Z,15.74
2023-11-04T11:03:34.092Z,15.64
2023-11-04T11:04:34.121Z,15.55
2023-11-04T11:05:34.153Z,15.64
2023-11-04T11:06:34.036Z,15.45
2023-11-04T11:07:34.041Z,15.45
2023-11-04T11:08:34.039Z,15.55
2023-11-04T11:09:34.077Z,15.64
2023-11-04T11:10:34.049Z,15.64
2023-11-04T11:11:34.069Z,15.64
2023-11-04T11:12:34.061Z,15.64
2023-11-04T11:13:34.065Z,15.55
2023-11-04T11:14:34.056Z,15.55
2023-11-04T11:15:34.062Z,15.55
2023-11-04T11:16:34.058Z,15.64
2023-11-04T11:17:34.115Z,15.55
2023-11-04T11:18:34.310Z,15.55
2023-11-04T11:19:34.157Z,15.55
2023-11-04T11:20:34.070Z,15.55
2023-11-04T11:21:34.114Z,15.55
2023-11-04T11:22:34.074Z,15.64
2023-11-04T11:23:34.065Z,15.74
2023-11-04T11:24:34.138Z,15.45
2023-11-04T11:25:34.069Z,15.55
2023-11-04T11:26:34.083Z,15.55
2023-11-04T11:27:34.097Z,15.55
2023-11-04T11:28:34.084Z,15.55
2023-11-04T11:29:34.108Z,15.55
2023-11-04T11:30:34.130Z,15.55
2023-11-04T11:31:34.084Z,15.64
2023-11-04T11:32:34.123Z,15.55
2023-11-04T11:33:34.189Z,15.64
2023-11-04T11:34:34.397Z,15.55
2023-11-04T11:35:34.123Z,15.55
2023-11-04T11:36:34.188Z,15.55
2023-11-04T11:37:34.104Z,15.45
2023-11-04T11:38:34.115Z,15.55
2023-11-04T11:39:34.120Z,15.16
2023-11-04T11:40:41.676Z,15.45
2023-11-04T11:41:34.104Z,15.25
2023-11-04T11:42:34.168Z,15.55
2023-11-04T11:43:34.112Z,15.55
2023-11-04T11:44:34.129Z,15.64
2023-11-04T11:45:34.158Z,15.55
2023-11-04T11:46:34.185Z,15.45
2023-11-04T11:47:34.221Z,15.55
2023-11-04T11:48:34.333Z,15.84
2023-11-04T11:49:34.164Z,15.64
2023-11-04T11:50:34.144Z,15.06
2023-11-04T11:51:34.145Z,15.06
2023-11-04T11:52:34.135Z,15.16
2023-11-04T11:53:34.141Z,15.55
2023-11-04T11:54:34.337Z,15.55
2023-11-04T11:55:34.142Z,15.55
2023-11-04T11:56:34.144Z,15.55
2023-11-04T11:57:34.147Z,15.55
2023-11-04T11:58:34.150Z,15.55
2023-11-04T11:59:34.144Z,15.45
2023-11-04T12:00:34.193Z,15.64
2023-11-04T12:01:34.174Z,15.55
2023-11-04T12:02:34.179Z,15.55
2023-11-04T12:03:34.240Z,15.64
2023-11-04T12:04:34.248Z,15.45
2023-11-04T12:05:34.232Z,15.55
2023-11-04T12:06:34.536Z,15.64
2023-11-04T12:07:35.237Z,15.45
2023-11-04T12:08:34.176Z,15.55
2023-11-04T12:09:34.279Z,15.64
2023-11-04T12:10:34.181Z,15.84
2023-11-04T12:11:34.170Z,15.64
2023-11-04T12:12:34.183Z,15.55
2023-11-04T12:13:34.183Z,15.55
2023-11-04T12:14:34.186Z,15.16
2023-11-04T12:15:34.190Z,15.06
2023-11-04T12:16:34.189Z,15.45
2023-11-04T12:17:34.220Z,15.64
2023-11-04T12:18:34.345Z,15.16
2023-11-04T12:19:34.254Z,15.55
2023-11-04T12:20:34.199Z,15.06
2023-11-04T12:21:34.246Z,15.06
2023-11-04T12:22:34.204Z,15.16
2023-11-04T12:23:34.207Z,15.16
2023-11-04T12:24:34.228Z,15.45
2023-11-04T12:25:34.201Z,15.16
2023-11-04T12:26:34.229Z,15.64
2023-11-04T12:27:34.215Z,15.64
2023-11-04T12:28:34.214Z,15.55
2023-11-04T12:29:34.209Z,15.64
2023-11-04T12:30:34.239Z,15.55
2023-11-04T12:31:34.223Z,15.25
2023-11-04T12:32:34.258Z,15.45
2023-11-04T12:33:34.289Z,15.25
2023-11-04T12:34:34.293Z,15.25
2023-11-04T12:35:34.223Z,15.35
2023-11-04T12:36:34.233Z,15.55
2023-11-04T12:37:34.227Z,15.35
2023-11-04T12:38:34.248Z,15.45
2023-11-04T12:39:34.244Z,15.64
2023-11-04T12:40:34.239Z,15.25
2023-11-04T12:41:34.242Z,15.55
2023-11-04T12:42:34.243Z,15.35
2023-11-04T12:43:34.251Z,15.55
2023-11-04T12:44:34.253Z,15.25
2023-11-04T12:45:34.266Z,15.55
2023-11-04T12:46:34.255Z,15.55
2023-11-04T12:47:34.300Z,15.55
2023-11-04T12:48:34.342Z,15.55
2023-11-04T12:49:34.330Z,15.55
2023-11-04T12:50:34.268Z,15.55
2023-11-04T12:51:34.270Z,15.55
2023-11-04T12:52:34.275Z,15.55